sensor_id;sensor_type;location;lat;lon;timestamp;P1;durP1;ratioP1;P2;durP2;ratioP2
3267;SDS011;1646;52.450;13.326;2023-10-13T00:02:52;10.93;;;4.80;;
3267;SDS011;1646;52.450;13.326;2023-10-13T00:07:50;10.43;;;4.60;;
3267;SDS011;1646;52.450;13.326;2023-10-13T00:12:48;7.93;;;4.43;;
3267;SDS011;1646;52.450;13.326;2023-10-13T00:17:47;10.27;;;4.33;;
3267;SDS011;1646;52.450;13.326;2023-10-13T00:22:46;7.10;;;4.50;;
3267;SDS011;1646;52.450;13.326;2023-10-13T00:27:45;5.10;;;4.17;;
3267;SDS011;1646;52.450;13.326;2023-10-13T00:32:48;7.10;;;5.43;;
3267;SDS011;1646;52.450;13.326;2023-10-13T00:37:53;12.67;;;5.70;;
3267;SDS011;1646;52.450;13.326;2023-10-13T00:42:52;10.33;;;5.90;;
3267;SDS011;1646;52.450;13.326;2023-10-13T00:47:51;13.70;;;5.47;;
3267;SDS011;1646;52.450;13.326;2023-10-13T00:52:55;7.60;;;4.87;;
3267;SDS011;1646;52.450;13.326;2023-10-13T00:57:54;11.70;;;4.57;;
3267;SDS011;1646;52.450;13.326;2023-10-13T01:02:56;13.40;;;5.33;;
3267;SDS011;1646;52.450;13.326;2023-10-13T01:08:05;7.37;;;4.70;;
3267;SDS011;1646;52.450;13.326;2023-10-13T01:13:07;9.97;;;5.83;;
3267;SDS011;1646;52.450;13.326;2023-10-13T01:18:07;8.63;;;5.90;;
3267;SDS011;1646;52.450;13.326;2023-10-13T01:23:10;12.97;;;6.37;;
3267;SDS011;1646;52.450;13.326;2023-10-13T01:28:15;10.30;;;6.33;;
3267;SDS011;1646;52.450;13.326;2023-10-13T01:33:14;9.33;;;7.50;;
3267;SDS011;1646;52.450;13.326;2023-10-13T01:38:14;8.30;;;6.70;;
3267;SDS011;1646;52.450;13.326;2023-10-13T01:43:12;10.70;;;7.20;;
3267;SDS011;1646;52.450;13.326;2023-10-13T01:48:11;6.70;;;6.00;;
3267;SDS011;1646;52.450;13.326;2023-10-13T01:53:13;9.40;;;7.00;;
3267;SDS011;1646;52.450;13.326;2023-10-13T01:58:14;9.07;;;6.63;;
3267;SDS011;1646;52.450;13.326;2023-10-13T02:03:16;12.17;;;7.80;;
3267;SDS011;1646;52.450;13.326;2023-10-13T02:08:17;13.10;;;7.77;;
3267;SDS011;1646;52.450;13.326;2023-10-13T02:13:19;9.63;;;7.43;;
3267;SDS011;1646;52.450;13.326;2023-10-13T02:18:19;14.83;;;8.10;;
3267;SDS011;1646;52.450;13.326;2023-10-13T02:23:25;13.10;;;8.40;;
3267;SDS011;1646;52.450;13.326;2023-10-13T02:28:26;12.40;;;7.90;;
3267;SDS011;1646;52.450;13.326;2023-10-13T02:33:26;14.67;;;7.70;;
3267;SDS011;1646;52.450;13.326;2023-10-13T02:38:28;12.30;;;8.13;;
3267;SDS011;1646;52.450;13.326;2023-10-13T02:43:32;14.40;;;9.10;;
3267;SDS011;1646;52.450;13.326;2023-10-13T02:48:31;18.07;;;9.70;;
3267;SDS011;1646;52.450;13.326;2023-10-13T02:53:38;16.57;;;10.57;;
3267;SDS011;1646;52.450;13.326;2023-10-13T02:58:38;18.10;;;9.93;;
3267;SDS011;1646;52.450;13.326;2023-10-13T03:03:36;19.80;;;9.90;;
3267;SDS011;1646;52.450;13.326;2023-10-13T03:08:34;17.53;;;11.30;;
3267;SDS011;1646;52.450;13.326;2023-10-13T03:13:35;15.30;;;10.00;;
3267;SDS011;1646;52.450;13.326;2023-10-13T03:18:34;16.83;;;10.90;;
3267;SDS011;1646;52.450;13.326;2023-10-13T03:23:32;16.10;;;10.13;;
3267;SDS011;1646;52.450;13.326;2023-10-13T03:28:43;17.50;;;12.07;;
3267;SDS011;1646;52.450;13.326;2023-10-13T03:33:48;17.67;;;11.23;;
3267;SDS011;1646;52.450;13.326;2023-10-13T03:38:53;21.37;;;11.93;;
3267;SDS011;1646;52.450;13.326;2023-10-13T03:43:53;18.90;;;11.73;;
3267;SDS011;1646;52.450;13.326;2023-10-13T03:49:05;24.80;;;11.30;;
3267;SDS011;1646;52.450;13.326;2023-10-13T03:54:09;22.23;;;11.97;;
3267;SDS011;1646;52.450;13.326;2023-10-13T03:59:09;19.57;;;11.90;;
3267;SDS011;1646;52.450;13.326;2023-10-13T04:04:16;19.80;;;12.60;;
3267;SDS011;1646;52.450;13.326;2023-10-13T04:09:30;18.97;;;12.07;;
3267;SDS011;1646;52.450;13.326;2023-10-13T04:14:48;25.20;;;13.77;;
3267;SDS011;1646;52.450;13.326;2023-10-13T04:20:12;18.20;;;11.30;;
3267;SDS011;1646;52.450;13.326;2023-10-13T04:25:16;20.30;;;13.00;;
3267;SDS011;1646;52.450;13.326;2023-10-13T04:30:36;25.97;;;15.17;;
3267;SDS011;1646;52.450;13.326;2023-10-13T04:35:49;21.70;;;14.57;;
3267;SDS011;1646;52.450;13.326;2023-10-13T04:40:55;30.40;;;15.67;;
3267;SDS011;1646;52.450;13.326;2023-10-13T04:45:59;24.23;;;15.00;;
3267;SDS011;1646;52.450;13.326;2023-10-13T04:51:11;22.90;;;13.67;;
3267;SDS011;1646;52.450;13.326;2023-10-13T04:56:46;24.27;;;13.70;;
3267;SDS011;1646;52.450;13.326;2023-10-13T05:02:07;24.60;;;14.70;;
3267;SDS011;1646;52.450;13.326;2023-10-13T05:07:39;21.80;;;13.87;;
3267;SDS011;1646;52.450;13.326;2023-10-13T05:12:55;24.33;;;13.93;;
3267;SDS011;1646;52.450;13.326;2023-10-13T05:18:12;21.50;;;13.57;;
3267;SDS011;1646;52.450;13.326;2023-10-13T05:23:31;17.27;;;13.20;;
3267;SDS011;1646;52.450;13.326;2023-10-13T05:28:47;24.87;;;14.27;;
3267;SDS011;1646;52.450;13.326;2023-10-13T05:34:24;21.70;;;13.87;;
3267;SDS011;1646;52.450;13.326;2023-10-13T05:39:36;19.03;;;13.63;;
3267;SDS011;1646;52.450;13.326;2023-10-13T05:44:52;23.07;;;15.23;;
3267;SDS011;1646;52.450;13.326;2023-10-13T05:50:15;20.93;;;13.83;;
3267;SDS011;1646;52.450;13.326;2023-10-13T05:55:46;19.47;;;13.97;;
3267;SDS011;1646;52.450;13.326;2023-10-13T06:01:04;21.57;;;13.50;;
3267;SDS011;1646;52.450;13.326;2023-10-13T06:06:21;21.23;;;14.50;;
3267;SDS011;1646;52.450;13.326;2023-10-13T06:11:37;25.60;;;14.43;;
3267;SDS011;1646;52.450;13.326;2023-10-13T06:16:53;25.30;;;14.87;;
3267;SDS011;1646;52.450;13.326;2023-10-13T06:22:10;19.30;;;13.10;;
3267;SDS011;1646;52.450;13.326;2023-10-13T06:27:26;20.70;;;12.87;;
3267;SDS011;1646;52.450;13.326;2023-10-13T06:32:41;20.00;;;13.50;;
3267;SDS011;1646;52.450;13.326;2023-10-13T06:37:44;21.33;;;13.47;;
3267;SDS011;1646;52.450;13.326;2023-10-13T06:42:43;22.10;;;13.13;;
3267;SDS011;1646;52.450;13.326;2023-10-13T06:47:42;18.40;;;12.80;;
3267;SDS011;1646;52.450;13.326;2023-10-13T06:52:40;22.93;;;13.30;;
3267;SDS011;1646;52.450;13.326;2023-10-13T06:57:40;18.70;;;13.40;;
3267;SDS011;1646;52.450;13.326;2023-10-13T07:02:40;16.40;;;11.17;;
3267;SDS011;1646;52.450;13.326;2023-10-13T07:07:40;12.87;;;10.10;;
3267;SDS011;1646;52.450;13.326;2023-10-13T07:12:42;16.67;;;10.47;;
3267;SDS011;1646;52.450;13.326;2023-10-13T07:17:40;12.00;;;9.37;;
3267;SDS011;1646;52.450;13.326;2023-10-13T07:22:41;13.33;;;8.93;;
3267;SDS011;1646;52.450;13.326;2023-10-13T07:27:53;14.47;;;8.53;;
3267;SDS011;1646;52.450;13.326;2023-10-13T07:32:54;12.87;;;8.20;;
3267;SDS011;1646;52.450;13.326;2023-10-13T07:37:56;9.87;;;7.57;;
3267;SDS011;1646;52.450;13.326;2023-10-13T07:42:58;12.87;;;8.00;;
3267;SDS011;1646;52.450;13.326;2023-10-13T07:47:57;9.97;;;7.60;;
3267;SDS011;1646;52.450;13.326;2023-10-13T07:52:57;10.70;;;7.70;;
3267;SDS011;1646;52.450;13.326;2023-10-13T07:58:03;8.43;;;7.30;;
3267;SDS011;1646;52.450;13.326;2023-10-13T08:03:04;8.77;;;6.93;;
3267;SDS011;1646;52.450;13.326;2023-10-13T08:08:16;10.57;;;7.37;;
3267;SDS011;1646;52.450;13.326;2023-10-13T08:13:16;18.17;;;8.90;;
3267;SDS011;1646;52.450;13.326;2023-10-13T08:18:17;9.20;;;6.60;;
3267;SDS011;1646;52.450;13.326;2023-10-13T08:23:27;9.57;;;6.60;;
3267;SDS011;1646;52.450;13.326;2023-10-13T08:28:53;9.63;;;7.37;;
3267;SDS011;1646;52.450;13.326;2023-10-13T08:33:53;10.00;;;6.50;;
3267;SDS011;1646;52.450;13.326;2023-10-13T08:39:02;10.13;;;6.87;;
3267;SDS011;1646;52.450;13.326;2023-10-13T08:44:20;11.97;;;6.47;;
3267;SDS011;1646;52.450;13.326;2023-10-13T08:49:41;11.13;;;6.83;;
3267;SDS011;1646;52.450;13.326;2023-10-13T08:54:47;9.93;;;7.43;;
3267;SDS011;1646;52.450;13.326;2023-10-13T08:59:47;11.40;;;6.10;;
3267;SDS011;1646;52.450;13.326;2023-10-13T09:04:52;9.23;;;6.50;;
3267;SDS011;1646;52.450;13.326;2023-10-13T09:10:06;6.87;;;6.17;;
3267;SDS011;1646;52.450;13.326;2023-10-13T09:15:31;9.20;;;5.67;;
3267;SDS011;1646;52.450;13.326;2023-10-13T09:20:43;8.33;;;6.23;;
3267;SDS011;1646;52.450;13.326;2023-10-13T09:25:42;16.03;;;6.33;;
3267;SDS011;1646;52.450;13.326;2023-10-13T09:30:56;10.80;;;7.00;;
3267;SDS011;1646;52.450;13.326;2023-10-13T09:35:55;10.37;;;6.00;;
3267;SDS011;1646;52.450;13.326;2023-10-13T09:40:56;8.40;;;6.13;;
3267;SDS011;1646;52.450;13.326;2023-10-13T09:46:00;10.20;;;6.67;;
3267;SDS011;1646;52.450;13.326;2023-10-13T09:51:04;10.37;;;7.20;;
3267;SDS011;1646;52.450;13.326;2023-10-13T09:56:06;8.23;;;5.33;;
3267;SDS011;1646;52.450;13.326;2023-10-13T10:01:17;7.77;;;6.50;;
3267;SDS011;1646;52.450;13.326;2023-10-13T10:06:29;8.73;;;6.17;;
3267;SDS011;1646;52.450;13.326;2023-10-13T10:11:52;10.20;;;5.10;;
3267;SDS011;1646;52.450;13.326;2023-10-13T10:17:16;7.67;;;5.77;;
3267;SDS011;1646;52.450;13.326;2023-10-13T10:22:24;9.70;;;5.60;;
3267;SDS011;1646;52.450;13.326;2023-10-13T10:27:28;6.90;;;5.40;;
3267;SDS011;1646;52.450;13.326;2023-10-13T10:32:38;8.97;;;5.87;;
3267;SDS011;1646;52.450;13.326;2023-10-13T10:37:38;8.33;;;5.83;;
3267;SDS011;1646;52.450;13.326;2023-10-13T10:42:43;10.67;;;6.27;;
3267;SDS011;1646;52.450;13.326;2023-10-13T10:47:48;8.67;;;5.67;;
3267;SDS011;1646;52.450;13.326;2023-10-13T10:52:54;8.50;;;5.70;;
3267;SDS011;1646;52.450;13.326;2023-10-13T10:57:58;10.00;;;6.10;;
3267;SDS011;1646;52.450;13.326;2023-10-13T11:02:59;9.30;;;6.43;;
3267;SDS011;1646;52.450;13.326;2023-10-13T11:07:58;6.63;;;6.03;;
3267;SDS011;1646;52.450;13.326;2023-10-13T11:12:58;8.07;;;6.20;;
3267;SDS011;1646;52.450;13.326;2023-10-13T11:18:11;7.90;;;6.57;;
3267;SDS011;1646;52.450;13.326;2023-10-13T11:23:18;9.57;;;6.23;;
3267;SDS011;1646;52.450;13.326;2023-10-13T11:28:19;6.13;;;5.53;;
3267;SDS011;1646;52.450;13.326;2023-10-13T11:33:25;9.60;;;6.30;;
3267;SDS011;1646;52.450;13.326;2023-10-13T11:38:26;11.70;;;6.33;;
3267;SDS011;1646;52.450;13.326;2023-10-13T11:43:25;9.23;;;5.97;;
3267;SDS011;1646;52.450;13.326;2023-10-13T11:48:25;8.37;;;5.60;;
3267;SDS011;1646;52.450;13.326;2023-10-13T11:53:33;7.43;;;5.23;;
3267;SDS011;1646;52.450;13.326;2023-10-13T11:58:31;10.83;;;5.20;;
3267;SDS011;1646;52.450;13.326;2023-10-13T12:03:32;8.33;;;5.37;;
3267;SDS011;1646;52.450;13.326;2023-10-13T12:08:48;11.10;;;5.07;;
3267;SDS011;1646;52.450;13.326;2023-10-13T12:13:49;7.10;;;5.50;;
3267;SDS011;1646;52.450;13.326;2023-10-13T12:18:49;8.87;;;5.33;;
3267;SDS011;1646;52.450;13.326;2023-10-13T12:23:50;12.67;;;5.87;;
3267;SDS011;1646;52.450;13.326;2023-10-13T12:28:51;7.03;;;5.30;;
3267;SDS011;1646;52.450;13.326;2023-10-13T12:33:51;9.47;;;5.00;;
3267;SDS011;1646;52.450;13.326;2023-10-13T12:38:50;10.97;;;5.70;;
3267;SDS011;1646;52.450;13.326;2023-10-13T12:44:09;8.07;;;5.10;;
3267;SDS011;1646;52.450;13.326;2023-10-13T12:49:26;12.10;;;5.53;;
3267;SDS011;1646;52.450;13.326;2023-10-13T12:54:46;11.57;;;5.73;;
3267;SDS011;1646;52.450;13.326;2023-10-13T12:59:55;9.37;;;5.10;;
3267;SDS011;1646;52.450;13.326;2023-10-13T13:04:55;9.83;;;5.33;;
3267;SDS011;1646;52.450;13.326;2023-10-13T13:10:02;14.57;;;6.43;;
3267;SDS011;1646;52.450;13.326;2023-10-13T13:15:01;12.70;;;5.27;;
3267;SDS011;1646;52.450;13.326;2023-10-13T13:20:07;13.67;;;6.40;;
3267;SDS011;1646;52.450;13.326;2023-10-13T13:25:22;17.70;;;5.23;;
3267;SDS011;1646;52.450;13.326;2023-10-13T13:30:27;16.37;;;5.57;;
3267;SDS011;1646;52.450;13.326;2023-10-13T13:35:49;12.83;;;4.90;;
3267;SDS011;1646;52.450;13.326;2023-10-13T13:40:50;14.30;;;6.00;;
3267;SDS011;1646;52.450;13.326;2023-10-13T13:45:51;13.77;;;5.63;;
3267;SDS011;1646;52.450;13.326;2023-10-13T13:50:56;11.33;;;5.57;;
3267;SDS011;1646;52.450;13.326;2023-10-13T13:56:01;15.37;;;5.37;;
3267;SDS011;1646;52.450;13.326;2023-10-13T14:01:00;10.30;;;5.60;;
3267;SDS011;1646;52.450;13.326;2023-10-13T14:06:09;10.40;;;5.40;;
3267;SDS011;1646;52.450;13.326;2023-10-13T14:11:14;10.67;;;5.30;;
3267;SDS011;1646;52.450;13.326;2023-10-13T14:16:39;8.80;;;5.30;;
3267;SDS011;1646;52.450;13.326;2023-10-13T14:21:43;12.90;;;6.00;;
3267;SDS011;1646;52.450;13.326;2023-10-13T14:26:50;12.33;;;5.57;;
3267;SDS011;1646;52.450;13.326;2023-10-13T14:31:48;9.33;;;5.87;;
3267;SDS011;1646;52.450;13.326;2023-10-13T14:36:48;16.60;;;5.90;;
3267;SDS011;1646;52.450;13.326;2023-10-13T14:41:46;24.47;;;6.83;;
3267;SDS011;1646;52.450;13.326;2023-10-13T14:46:45;11.77;;;6.10;;
3267;SDS011;1646;52.450;13.326;2023-10-13T14:51:43;12.43;;;4.90;;
3267;SDS011;1646;52.450;13.326;2023-10-13T14:56:43;10.50;;;5.63;;
3267;SDS011;1646;52.450;13.326;2023-10-13T15:01:41;9.57;;;5.43;;
3267;SDS011;1646;52.450;13.326;2023-10-13T15:06:40;13.37;;;5.37;;
3267;SDS011;1646;52.450;13.326;2023-10-13T15:11:40;12.43;;;5.30;;
3267;SDS011;1646;52.450;13.326;2023-10-13T15:16:47;14.70;;;5.40;;
3267;SDS011;1646;52.450;13.326;2023-10-13T15:21:46;16.33;;;6.70;;
3267;SDS011;1646;52.450;13.326;2023-10-13T15:26:47;11.53;;;5.00;;
3267;SDS011;1646;52.450;13.326;2023-10-13T15:31:47;11.90;;;5.73;;
3267;SDS011;1646;52.450;13.326;2023-10-13T15:37:01;9.80;;;5.70;;
3267;SDS011;1646;52.450;13.326;2023-10-13T15:42:01;15.67;;;5.27;;
3267;SDS011;1646;52.450;13.326;2023-10-13T15:47:01;8.93;;;5.20;;
3267;SDS011;1646;52.450;13.326;2023-10-13T15:52:20;14.33;;;5.77;;
3267;SDS011;1646;52.450;13.326;2023-10-13T15:57:20;17.93;;;5.90;;
3267;SDS011;1646;52.450;13.326;2023-10-13T16:02:21;11.43;;;5.60;;
3267;SDS011;1646;52.450;13.326;2023-10-13T16:07:20;15.10;;;5.77;;
3267;SDS011;1646;52.450;13.326;2023-10-13T16:12:19;8.93;;;5.20;;
3267;SDS011;1646;52.450;13.326;2023-10-13T16:17:17;19.57;;;5.90;;
3267;SDS011;1646;52.450;13.326;2023-10-13T16:22:19;11.50;;;6.07;;
3267;SDS011;1646;52.450;13.326;2023-10-13T16:27:17;13.23;;;5.77;;
3267;SDS011;1646;52.450;13.326;2023-10-13T16:32:16;9.33;;;5.90;;
3267;SDS011;1646;52.450;13.326;2023-10-13T16:37:14;14.93;;;5.70;;
3267;SDS011;1646;52.450;13.326;2023-10-13T16:42:14;14.90;;;5.93;;
3267;SDS011;1646;52.450;13.326;2023-10-13T16:47:12;14.27;;;6.53;;
3267;SDS011;1646;52.450;13.326;2023-10-13T16:52:11;12.80;;;5.37;;
3267;SDS011;1646;52.450;13.326;2023-10-13T16:57:09;9.87;;;5.53;;
3267;SDS011;1646;52.450;13.326;2023-10-13T17:02:09;8.33;;;5.27;;
3267;SDS011;1646;52.450;13.326;2023-10-13T17:07:07;13.17;;;5.53;;
3267;SDS011;1646;52.450;13.326;2023-10-13T17:12:06;12.73;;;4.97;;
3267;SDS011;1646;52.450;13.326;2023-10-13T17:17:06;11.43;;;4.73;;
3267;SDS011;1646;52.450;13.326;2023-10-13T17:22:06;12.80;;;5.27;;
3267;SDS011;1646;52.450;13.326;2023-10-13T17:27:05;10.50;;;5.47;;
3267;SDS011;1646;52.450;13.326;2023-10-13T17:32:05;17.70;;;6.00;;
3267;SDS011;1646;52.450;13.326;2023-10-13T17:37:04;13.00;;;5.63;;
3267;SDS011;1646;52.450;13.326;2023-10-13T17:42:06;12.80;;;5.47;;
3267;SDS011;1646;52.450;13.326;2023-10-13T17:47:04;12.77;;;6.20;;
3267;SDS011;1646;52.450;13.326;2023-10-13T17:52:08;8.10;;;4.87;;
3267;SDS011;1646;52.450;13.326;2023-10-13T17:57:06;10.90;;;4.80;;
3267;SDS011;1646;52.450;13.326;2023-10-13T18:02:05;12.10;;;5.77;;
3267;SDS011;1646;52.450;13.326;2023-10-13T18:07:03;9.00;;;5.57;;
3267;SDS011;1646;52.450;13.326;2023-10-13T18:12:04;12.57;;;5.70;;
3267;SDS011;1646;52.450;13.326;2023-10-13T18:17:02;13.77;;;5.10;;
3267;SDS011;1646;52.450;13.326;2023-10-13T18:22:04;11.10;;;5.67;;
3267;SDS011;1646;52.450;13.326;2023-10-13T18:27:04;5.83;;;4.20;;
3267;SDS011;1646;52.450;13.326;2023-10-13T18:32:02;11.87;;;5.50;;
3267;SDS011;1646;52.450;13.326;2023-10-13T18:37:02;10.60;;;5.50;;
3267;SDS011;1646;52.450;13.326;2023-10-13T18:42:04;8.93;;;5.03;;
3267;SDS011;1646;52.450;13.326;2023-10-13T18:47:03;9.63;;;5.07;;
3267;SDS011;1646;52.450;13.326;2023-10-13T18:52:01;9.73;;;5.67;;
3267;SDS011;1646;52.450;13.326;2023-10-13T18:56:59;9.63;;;5.23;;
3267;SDS011;1646;52.450;13.326;2023-10-13T19:02:00;9.40;;;5.00;;
3267;SDS011;1646;52.450;13.326;2023-10-13T19:06:58;9.93;;;5.50;;
3267;SDS011;1646;52.450;13.326;2023-10-13T19:11:57;12.03;;;5.30;;
3267;SDS011;1646;52.450;13.326;2023-10-13T19:16:55;15.30;;;5.10;;
3267;SDS011;1646;52.450;13.326;2023-10-13T19:21:55;7.70;;;4.40;;
3267;SDS011;1646;52.450;13.326;2023-10-13T19:26:54;11.60;;;4.80;;
3267;SDS011;1646;52.450;13.326;2023-10-13T19:31:52;11.23;;;4.53;;
3267;SDS011;1646;52.450;13.326;2023-10-13T19:36:51;13.97;;;4.70;;
3267;SDS011;1646;52.450;13.326;2023-10-13T19:41:51;7.60;;;5.00;;
3267;SDS011;1646;52.450;13.326;2023-10-13T19:46:49;17.13;;;5.50;;
3267;SDS011;1646;52.450;13.326;2023-10-13T19:51:48;13.43;;;5.20;;
3267;SDS011;1646;52.450;13.326;2023-10-13T19:56:49;10.67;;;5.20;;
3267;SDS011;1646;52.450;13.326;2023-10-13T20:01:49;9.80;;;5.10;;
3267;SDS011;1646;52.450;13.326;2023-10-13T20:06:48;11.83;;;5.30;;
3267;SDS011;1646;52.450;13.326;2023-10-13T20:11:53;8.87;;;4.17;;
3267;SDS011;1646;52.450;13.326;2023-10-13T20:16:53;6.50;;;4.97;;
3267;SDS011;1646;52.450;13.326;2023-10-13T20:21:53;13.40;;;4.70;;
3267;SDS011;1646;52.450;13.326;2023-10-13T20:26:52;13.33;;;4.53;;
3267;SDS011;1646;52.450;13.326;2023-10-13T20:31:53;11.53;;;4.83;;
3267;SDS011;1646;52.450;13.326;2023-10-13T20:36:51;9.07;;;4.53;;
3267;SDS011;1646;52.450;13.326;2023-10-13T20:41:53;7.50;;;3.77;;
3267;SDS011;1646;52.450;13.326;2023-10-13T20:46:51;15.73;;;5.27;;
3267;SDS011;1646;52.450;13.326;2023-10-13T20:51:52;12.60;;;4.83;;
3267;SDS011;1646;52.450;13.326;2023-10-13T20:56:51;10.03;;;4.83;;
3267;SDS011;1646;52.450;13.326;2023-10-13T21:01:51;9.73;;;5.47;;
3267;SDS011;1646;52.450;13.326;2023-10-13T21:06:51;9.57;;;5.00;;
3267;SDS011;1646;52.450;13.326;2023-10-13T21:11:50;13.70;;;4.97;;
3267;SDS011;1646;52.450;13.326;2023-10-13T21:16:49;9.97;;;4.60;;
3267;SDS011;1646;52.450;13.326;2023-10-13T21:21:48;12.03;;;5.33;;
3267;SDS011;1646;52.450;13.326;2023-10-13T21:26:50;12.10;;;5.70;;
3267;SDS011;1646;52.450;13.326;2023-10-13T21:31:49;19.30;;;5.27;;
3267;SDS011;1646;52.450;13.326;2023-10-13T21:36:49;10.77;;;5.47;;
3267;SDS011;1646;52.450;13.326;2023-10-13T21:41:48;11.00;;;4.83;;
3267;SDS011;1646;52.450;13.326;2023-10-13T21:46:46;14.23;;;5.20;;
3267;SDS011;1646;52.450;13.326;2023-10-13T21:51:46;10.30;;;5.27;;
3267;SDS011;1646;52.450;13.326;2023-10-13T21:56:44;11.30;;;5.50;;
3267;SDS011;1646;52.450;13.326;2023-10-13T22:01:43;9.70;;;5.50;;
3267;SDS011;1646;52.450;13.326;2023-10-13T22:06:42;14.93;;;4.80;;
3267;SDS011;1646;52.450;13.326;2023-10-13T22:11:44;23.93;;;4.87;;
3267;SDS011;1646;52.450;13.326;2023-10-13T22:16:42;8.47;;;5.00;;
3267;SDS011;1646;52.450;13.326;2023-10-13T22:21:41;14.27;;;5.60;;
3267;SDS011;1646;52.450;13.326;2023-10-13T22:26:40;12.63;;;5.30;;
3267;SDS011;1646;52.450;13.326;2023-10-13T22:31:41;9.57;;;5.03;;
3267;SDS011;1646;52.450;13.326;2023-10-13T22:36:39;14.63;;;5.10;;
3267;SDS011;1646;52.450;13.326;2023-10-13T22:41:59;7.93;;;5.20;;
3267;SDS011;1646;52.450;13.326;2023-10-13T22:46:59;10.70;;;5.00;;
3267;SDS011;1646;52.450;13.326;2023-10-13T22:51:59;8.23;;;4.77;;
3267;SDS011;1646;52.450;13.326;2023-10-13T22:56:57;12.20;;;4.93;;
3267;SDS011;1646;52.450;13.326;2023-10-13T23:01:55;9.87;;;5.50;;
3267;SDS011;1646;52.450;13.326;2023-10-13T23:06:57;8.30;;;4.53;;
3267;SDS011;1646;52.450;13.326;2023-10-13T23:11:56;8.80;;;4.80;;
3267;SDS011;1646;52.450;13.326;2023-10-13T23:17:01;8.43;;;4.20;;
3267;SDS011;1646;52.450;13.326;2023-10-13T23:22:01;11.23;;;5.10;;
3267;SDS011;1646;52.450;13.326;2023-10-13T23:27:03;10.33;;;4.17;;
3267;SDS011;1646;52.450;13.326;2023-10-13T23:32:02;14.20;;;4.70;;
3267;SDS011;1646;52.450;13.326;2023-10-13T23:37:02;15.60;;;4.70;;
3267;SDS011;1646;52.450;13.326;2023-10-13T23:42:07;9.20;;;4.80;;
3267;SDS011;1646;52.450;13.326;2023-10-13T23:47:15;6.77;;;3.93;;
3267;SDS011;1646;52.450;13.326;2023-10-13T23:53:01;11.33;;;4.70;;
3267;SDS011;1646;52.450;13.326;2023-10-13T23:58:00;12.33;;;3.97;;
